Time;durP1;ratioP1;P1;durP2;ratioP2;P2;SDS_P1;SDS_P2;PMS_P1;PMS_P2;Temp;Humidity;BMP_temperature;BMP_pressure;BME280_temperature;BME280_humidity;BME280_pressure;Samples;Min_cycle;Max_cycle;Signal;HPM_P1;HPM_P2
2023/11/13 00:01:14;;;;;;;4.75;4.13;;;5.80;99.90;;;;;;5073475;28;20189;-88
2023/11/13 00:03:40;;;;;;;5.70;3.63;;;5.80;99.90;;;;;;5076444;28;20210;-87
2023/11/13 00:06:06;;;;;;;5.93;3.80;;;5.80;99.90;;;;;;5058745;28;20189;-88
2023/11/13 00:08:32;;;;;;;7.90;4.57;;;5.90;99.90;;;;;;5091838;28;20830;-87
2023/11/13 00:10:58;;;;;;;5.03;4.20;;;5.90;99.90;;;;;;5075448;28;20184;-87
2023/11/13 00:13:24;;;;;;;6.13;4.20;;;6.00;99.90;;;;;;5076318;28;20882;-88
2023/11/13 00:15:49;;;;;;;5.20;4.33;;;6.00;99.90;;;;;;5042221;28;20911;-87
2023/11/13 00:18:15;;;;;;;6.40;4.43;;;6.00;99.90;;;;;;5058643;28;20192;-87
2023/11/13 00:20:40;;;;;;;7.33;4.63;;;6.00;99.90;;;;;;5058490;28;20177;-87
2023/11/13 00:23:06;;;;;;;5.50;4.00;;;6.00;99.90;;;;;;5076499;28;20208;-88
2023/11/13 00:25:32;;;;;;;5.97;4.80;;;6.10;99.90;;;;;;5076040;28;20629;-87
2023/11/13 00:27:57;;;;;;;7.03;4.30;;;6.10;99.90;;;;;;5072299;28;20216;-87
2023/11/13 00:30:23;;;;;;;6.37;4.10;;;6.10;99.90;;;;;;5057271;28;20274;-87
2023/11/13 00:32:49;;;;;;;6.70;4.33;;;6.10;99.90;;;;;;5074252;28;20254;-86
2023/11/13 00:35:15;;;;;;;7.17;4.80;;;6.10;99.90;;;;;;5075032;28;20267;-86
2023/11/13 00:37:40;;;;;;;7.30;5.10;;;6.10;99.90;;;;;;5076035;28;20497;-87
2023/11/13 00:40:06;;;;;;;6.30;5.17;;;6.10;99.90;;;;;;5075008;28;20184;-87
2023/11/13 00:42:32;;;;;;;5.47;4.90;;;6.10;99.90;;;;;;5057798;28;20233;-87
2023/11/13 00:44:57;;;;;;;7.60;4.50;;;6.10;99.90;;;;;;5057845;28;20188;-87
2023/11/13 00:47:23;;;;;;;5.37;3.90;;;6.10;99.90;;;;;;5041741;28;20299;-86
2023/11/13 00:49:48;;;;;;;6.00;4.20;;;6.10;99.90;;;;;;5058199;28;20192;-86
2023/11/13 00:52:14;;;;;;;4.43;3.90;;;6.10;99.90;;;;;;5075923;28;20684;-86
2023/11/13 00:54:40;;;;;;;4.43;4.00;;;6.10;99.90;;;;;;5058027;28;20208;-86
2023/11/13 00:57:07;;;;;;;5.50;4.40;;;6.10;99.90;;;;;;5057779;28;20245;-87
2023/11/13 00:59:32;;;;;;;5.03;4.53;;;6.20;99.90;;;;;;5058002;28;20180;-86
2023/11/13 01:02:01;;;;;;;5.83;4.80;;;6.20;99.90;;;;;;5074474;28;20309;-86
2023/11/13 01:04:26;;;;;;;5.15;4.65;;;6.20;99.90;;;;;;5074255;28;20187;-86
2023/11/13 01:06:56;;;;;;;5.30;4.07;;;6.20;99.90;;;;;;5074154;28;20207;-86
2023/11/13 01:09:22;;;;;;;6.72;4.32;;;6.20;99.90;;;;;;5074211;28;20423;-87
2023/11/13 01:11:49;;;;;;;6.57;4.60;;;6.30;99.90;;;;;;5074282;28;20617;-87
2023/11/13 01:14:14;;;;;;;6.72;4.53;;;6.30;99.90;;;;;;5057746;28;20192;-86
2023/11/13 01:16:40;;;;;;;5.00;4.13;;;6.40;99.90;;;;;;5057222;28;20192;-87
2023/11/13 01:19:06;;;;;;;8.23;4.53;;;6.30;99.90;;;;;;5075106;28;20804;-87
2023/11/13 01:21:32;;;;;;;14.27;4.67;;;6.30;99.90;;;;;;5074086;28;20632;-87
2023/11/13 01:23:57;;;;;;;7.23;4.40;;;6.30;99.90;;;;;;5073953;28;20234;-87
2023/11/13 01:26:23;;;;;;;5.00;4.10;;;6.40;99.90;;;;;;5073499;28;20425;-87
2023/11/13 01:28:48;;;;;;;5.43;4.50;;;6.40;99.90;;;;;;5074731;28;20631;-87
2023/11/13 01:31:15;;;;;;;6.20;5.20;;;6.40;99.90;;;;;;5074014;28;20177;-87
2023/11/13 01:33:41;;;;;;;5.53;4.50;;;6.50;99.90;;;;;;5073540;28;20226;-87
2023/11/13 01:36:07;;;;;;;5.50;4.90;;;6.50;99.90;;;;;;5073746;28;20590;-87
2023/11/13 01:38:33;;;;;;;5.73;4.50;;;6.50;99.90;;;;;;5057111;28;20704;-87
2023/11/13 01:40:59;;;;;;;7.53;4.40;;;6.60;99.90;;;;;;5056589;28;20781;-87
2023/11/13 01:43:25;;;;;;;5.90;3.95;;;6.60;99.90;;;;;;5073586;28;20172;-87
2023/11/13 01:45:55;;;;;;;7.60;4.63;;;6.60;99.90;;;;;;5074517;28;20181;-86
2023/11/13 01:48:23;;;;;;;7.00;4.95;;;6.70;99.90;;;;;;5074869;28;20201;-86
2023/11/13 01:50:50;;;;;;;5.65;4.00;;;6.80;99.90;;;;;;5074555;28;20258;-87
2023/11/13 01:53:21;;;;;;;4.20;3.80;;;6.80;99.90;;;;;;5057684;28;20517;-87
2023/11/13 01:55:48;;;;;;;5.05;4.32;;;6.80;99.90;;;;;;5074728;28;20167;-87
2023/11/13 01:58:15;;;;;;;4.20;3.78;;;6.80;99.90;;;;;;5057093;28;20190;-88
2023/11/13 02:00:41;;;;;;;4.70;4.22;;;6.80;99.90;;;;;;5074390;28;20561;-87
2023/11/13 02:03:08;;;;;;;4.93;4.30;;;6.90;99.90;;;;;;5074517;28;20219;-87
2023/11/13 02:05:34;;;;;;;6.65;4.50;;;6.80;99.90;;;;;;5056862;28;20472;-86
2023/11/13 02:07:59;;;;;;;5.95;5.07;;;6.90;99.90;;;;;;5056074;28;20211;-86
2023/11/13 02:10:28;;;;;;;4.93;4.07;;;6.90;99.90;;;;;;5053986;28;20184;-85
2023/11/13 02:12:54;;;;;;;6.03;5.47;;;6.90;99.90;;;;;;5037242;28;20212;-86
2023/11/13 02:15:20;;;;;;;6.50;5.00;;;6.90;99.90;;;;;;5053823;28;20209;-86
2023/11/13 02:18:00;;;;;;;7.00;4.82;;;7.00;99.90;;;;;;5053390;28;20481;-85
2023/11/13 02:20:26;;;;;;;8.45;4.60;;;6.90;99.90;;;;;;5054766;28;20173;-86
2023/11/13 02:22:51;;;;;;;6.63;5.30;;;6.90;99.90;;;;;;5019975;28;20185;-86
2023/11/13 02:25:24;;;;;;;7.43;5.53;;;6.90;99.90;;;;;;5037048;28;20192;-86
2023/11/13 02:27:55;;;;;;;5.35;4.50;;;6.90;99.90;;;;;;5036610;28;20201;-86
2023/11/13 02:30:21;;;;;;;5.57;4.32;;;6.90;99.90;;;;;;5054725;28;20176;-86
2023/11/13 02:32:50;;;;;;;5.90;4.77;;;6.90;99.90;;;;;;5053012;28;20661;-86
2023/11/13 02:35:16;;;;;;;5.05;3.80;;;6.90;99.90;;;;;;5053215;28;20698;-86
2023/11/13 02:37:42;;;;;;;5.73;4.10;;;7.00;99.90;;;;;;5037846;28;20338;-86
2023/11/13 02:40:12;;;;;;;7.32;4.45;;;7.00;99.90;;;;;;5040750;28;20188;-86
2023/11/13 02:42:41;;;;;;;6.05;4.68;;;7.00;99.90;;;;;;5057552;28;20181;-86
2023/11/13 02:45:08;;;;;;;5.97;4.07;;;7.00;99.90;;;;;;5057036;28;20696;-86
2023/11/13 02:47:34;;;;;;;6.93;5.30;;;7.00;99.90;;;;;;5040551;28;20213;-87
2023/11/13 02:49:59;;;;;;;4.67;4.00;;;7.00;99.90;;;;;;5040393;28;20202;-86
2023/11/13 02:52:25;;;;;;;5.67;4.63;;;7.10;99.90;;;;;;5077406;28;20422;-86
2023/11/13 02:54:52;;;;;;;6.03;4.40;;;7.10;99.90;;;;;;5077463;28;20407;-86
2023/11/13 02:57:18;;;;;;;9.73;5.18;;;7.10;99.90;;;;;;5060928;28;20177;-86
2023/11/13 02:59:44;;;;;;;5.40;4.10;;;7.10;99.90;;;;;;5060084;28;20180;-86
2023/11/13 03:02:10;;;;;;;4.23;3.80;;;7.10;99.90;;;;;;5078455;28;20277;-86
2023/11/13 03:04:36;;;;;;;6.17;3.73;;;7.10;99.90;;;;;;5077517;28;20187;-85
2023/11/13 03:07:01;;;;;;;4.63;4.17;;;7.10;99.90;;;;;;5077194;28;20196;-86
2023/11/13 03:09:27;;;;;;;7.97;4.60;;;7.10;99.90;;;;;;5077009;28;20598;-87
2023/11/13 03:12:03;;;;;;;4.80;4.03;;;7.10;99.90;;;;;;5060199;28;20181;-88
2023/11/13 03:31:32;;;;;;;8.45;4.40;;;7.10;99.90;;;;;;5046986;28;20234;-92
2023/11/13 03:34:23;;;;;;;4.68;4.00;;;7.20;99.90;;;;;;5078306;28;20190;-92
2023/11/13 03:37:07;;;;;;;;;;;;;;;;;;;;;
2023/11/13 03:39:33;;;;;;;6.30;5.07;;;7.10;99.90;;;;;;5062473;28;20618;-95
2023/11/13 03:41:59;;;;;;;6.53;5.17;;;7.10;99.90;;;;;;5079173;28;20212;-95
2023/11/13 03:44:25;;;;;;;6.37;4.53;;;7.10;99.90;;;;;;5079861;28;20815;-94
2023/11/13 03:46:51;;;;;;;5.50;4.00;;;7.10;99.90;;;;;;5079792;28;20181;-93
2023/11/13 03:49:17;;;;;;;7.82;4.65;;;7.10;99.90;;;;;;5078179;28;20191;-94
2023/11/13 03:51:42;;;;;;;11.00;4.60;;;7.10;99.90;;;;;;5080250;28;20173;-93
2023/11/13 03:54:08;;;;;;;9.53;5.00;;;7.10;99.90;;;;;;5079664;28;20310;-94
2023/11/13 03:56:34;;;;;;;8.63;4.93;;;7.10;99.90;;;;;;5080837;28;20629;-96
2023/11/13 03:58:59;;;;;;;5.40;3.83;;;7.20;99.90;;;;;;5079532;28;20192;-96
2023/11/13 04:01:26;;;;;;;5.23;4.30;;;7.20;99.90;;;;;;5079074;28;20235;-95
2023/11/13 04:03:54;;;;;;;6.15;5.22;;;7.20;99.90;;;;;;5079375;28;20213;-95
2023/11/13 04:06:22;;;;;;;6.53;4.60;;;7.20;99.90;;;;;;5079165;28;20185;-95
2023/11/13 04:08:47;;;;;;;4.50;4.05;;;7.20;99.90;;;;;;5077896;28;20224;-94
2023/11/13 04:11:13;;;;;;;8.20;4.87;;;7.20;99.90;;;;;;5079403;28;20203;-95
2023/11/13 04:13:39;;;;;;;5.30;4.33;;;7.20;99.90;;;;;;5080135;28;20180;-95
2023/11/13 04:16:07;;;;;;;7.50;4.40;;;7.20;99.90;;;;;;5077111;28;20202;-94
2023/11/13 04:18:32;;;;;;;6.75;4.70;;;7.20;99.90;;;;;;5065258;28;20191;-95
2023/11/13 04:20:58;;;;;;;4.87;4.17;;;7.30;99.90;;;;;;5058774;28;20241;-94
2023/11/13 04:23:24;;;;;;;7.40;4.53;;;7.30;99.90;;;;;;5058089;28;20176;-95
2023/11/13 04:25:51;;;;;;;5.00;4.00;;;7.30;99.90;;;;;;5068143;28;20437;-95
2023/11/13 04:28:18;;;;;;;6.10;4.38;;;7.30;99.90;;;;;;5077771;28;20209;-95
2023/11/13 04:30:44;;;;;;;5.15;3.85;;;7.30;99.90;;;;;;5077268;28;20552;-94
2023/11/13 04:33:10;;;;;;;5.63;4.67;;;7.30;99.90;;;;;;5076712;28;20188;-94
2023/11/13 04:35:38;;;;;;;8.33;4.20;;;7.30;99.90;;;;;;5077146;28;20440;-94
2023/11/13 04:38:04;;;;;;;6.40;3.85;;;7.40;99.90;;;;;;5077146;28;20216;-94
2023/11/13 04:40:30;;;;;;;4.60;3.75;;;7.40;99.90;;;;;;5080101;28;20210;-94
2023/11/13 04:42:58;;;;;;;8.40;4.10;;;7.40;99.90;;;;;;5079849;28;20181;-94
2023/11/13 04:45:24;;;;;;;6.75;4.03;;;7.40;99.90;;;;;;5087673;28;20196;-94
2023/11/13 04:47:52;;;;;;;8.23;4.85;;;7.50;99.90;;;;;;5063977;28;20201;-94
2023/11/13 04:50:18;;;;;;;8.35;4.47;;;7.50;99.90;;;;;;5057600;28;20239;-94
2023/11/13 04:52:43;;;;;;;7.73;5.07;;;7.50;99.90;;;;;;5059066;28;20169;-94
2023/11/13 04:55:10;;;;;;;5.90;4.47;;;7.50;99.90;;;;;;5060075;28;20189;-93
2023/11/13 04:57:36;;;;;;;6.25;4.55;;;7.50;99.90;;;;;;5058743;28;20652;-94
2023/11/13 05:00:05;;;;;;;5.47;4.40;;;7.60;99.90;;;;;;5058705;28;20199;-94
2023/11/13 05:02:31;;;;;;;5.15;4.25;;;7.60;99.90;;;;;;5058837;28;20240;-93
2023/11/13 05:04:58;;;;;;;6.10;4.63;;;7.50;99.90;;;;;;5058850;28;20205;-93
2023/11/13 05:07:25;;;;;;;5.90;5.13;;;7.60;99.90;;;;;;5057318;28;20466;-94
2023/11/13 05:09:51;;;;;;;5.85;5.00;;;7.60;99.90;;;;;;5057151;28;20212;-93
2023/11/13 05:12:16;;;;;;;7.00;4.30;;;7.60;99.90;;;;;;5064944;28;20192;-93
2023/11/13 05:14:42;;;;;;;5.73;5.10;;;7.60;99.90;;;;;;5059581;28;20188;-94
2023/11/13 05:17:08;;;;;;;7.43;4.70;;;7.60;99.90;;;;;;5076008;28;20222;-93
2023/11/13 05:19:34;;;;;;;8.95;5.07;;;7.60;99.90;;;;;;5076359;28;20210;-93
2023/11/13 05:22:00;;;;;;;8.37;5.13;;;7.70;99.90;;;;;;5072148;28;20185;-93
2023/11/13 05:24:26;;;;;;;6.20;4.10;;;7.70;99.90;;;;;;5056059;28;20502;-93
2023/11/13 05:26:53;;;;;;;6.88;4.65;;;7.70;99.90;;;;;;5055996;28;20187;-94
2023/11/13 05:29:19;;;;;;;5.55;4.95;;;7.70;99.90;;;;;;5057232;28;20262;-93
2023/11/13 05:31:45;;;;;;;5.65;4.25;;;7.70;99.90;;;;;;5055483;28;20178;-93
2023/11/13 05:34:10;;;;;;;5.47;4.17;;;7.70;99.90;;;;;;5056414;28;20645;-92
2023/11/13 05:36:38;;;;;;;4.67;4.00;;;7.80;99.90;;;;;;5061341;28;20633;-93
2023/11/13 05:39:06;;;;;;;6.32;4.53;;;7.80;99.90;;;;;;5075730;28;20570;-94
2023/11/13 05:41:32;;;;;;;11.10;5.30;;;7.80;99.90;;;;;;5075536;28;20179;-93
2023/11/13 05:43:58;;;;;;;5.67;4.63;;;7.80;99.90;;;;;;5075452;28;20179;-93
2023/11/13 05:46:24;;;;;;;6.40;5.32;;;7.90;99.90;;;;;;5076772;28;20755;-93
2023/11/13 05:48:50;;;;;;;7.60;4.47;;;7.80;99.90;;;;;;5075551;28;20261;-93
2023/11/13 05:51:18;;;;;;;5.10;4.60;;;7.80;99.90;;;;;;5075892;28;20778;-92
2023/11/13 05:53:43;;;;;;;7.22;5.00;;;7.80;99.90;;;;;;5075449;28;20184;-92
2023/11/13 05:56:09;;;;;;;8.77;4.40;;;7.80;99.90;;;;;;5092370;28;20180;-92
2023/11/13 05:58:35;;;;;;;5.33;4.83;;;7.80;99.90;;;;;;5075911;28;20188;-93
2023/11/13 06:01:02;;;;;;;6.35;4.50;;;7.80;99.90;;;;;;5075235;28;20177;-92
2023/11/13 06:03:27;;;;;;;5.47;3.80;;;7.80;99.90;;;;;;5071956;28;20225;-93
2023/11/13 06:05:53;;;;;;;6.57;4.40;;;7.80;99.90;;;;;;5056045;28;20184;-94
2023/11/13 06:08:19;;;;;;;4.53;3.83;;;7.90;99.90;;;;;;5055552;28;20209;-94
2023/11/13 06:10:44;;;;;;;4.60;3.90;;;7.90;99.90;;;;;;5072590;28;20177;-95
2023/11/13 06:13:12;;;;;;;6.73;5.30;;;8.00;99.90;;;;;;5056311;28;20217;-95
2023/11/13 06:15:40;;;;;;;3.80;3.05;;;7.90;99.90;;;;;;5057491;28;20315;-95
2023/11/13 06:18:06;;;;;;;7.35;3.63;;;7.90;99.90;;;;;;5056748;28;20189;-95
2023/11/13 06:20:33;;;;;;;4.35;3.40;;;8.00;99.90;;;;;;5056042;28;20177;-95
2023/11/13 06:23:00;;;;;;;4.68;3.00;;;8.00;99.90;;;;;;5055665;28;20273;-94
2023/11/13 06:25:25;;;;;;;4.68;3.78;;;8.00;99.90;;;;;;5055793;28;20276;-94
2023/11/13 06:27:53;;;;;;;5.90;3.60;;;8.00;99.90;;;;;;5055687;28;20244;-94
2023/11/13 06:30:18;;;;;;;5.22;3.55;;;7.90;99.90;;;;;;5055057;28;20186;-94
2023/11/13 06:32:47;;;;;;;5.83;3.80;;;7.90;99.90;;;;;;5055534;28;20212;-95
2023/11/13 06:35:14;;;;;;;12.27;4.05;;;8.00;99.90;;;;;;5058398;28;20621;-94
2023/11/13 06:37:41;;;;;;;10.68;3.60;;;8.00;99.90;;;;;;5056141;28;20268;-91
2023/11/13 06:40:07;;;;;;;9.30;3.47;;;8.00;99.90;;;;;;5055178;28;20277;-90
2023/11/13 06:42:33;;;;;;;6.85;4.15;;;8.00;99.90;;;;;;5055700;28;20179;-92
2023/11/13 06:44:59;;;;;;;6.40;3.33;;;8.10;99.90;;;;;;5053065;28;20549;-88
2023/11/13 06:47:25;;;;;;;8.10;3.50;;;8.10;99.90;;;;;;5054131;28;20559;-89
2023/11/13 06:49:50;;;;;;;8.63;2.90;;;8.00;99.90;;;;;;5053026;28;20185;-88
2023/11/13 06:52:16;;;;;;;6.07;3.73;;;8.10;99.90;;;;;;5055412;28;20545;-88
2023/11/13 06:54:42;;;;;;;8.83;3.93;;;8.10;99.90;;;;;;5079041;28;20184;-88
2023/11/13 06:57:10;;;;;;;6.63;3.47;;;8.20;99.90;;;;;;5073128;28;20185;-88
2023/11/13 06:59:36;;;;;;;7.50;3.78;;;8.20;99.90;;;;;;5073064;28;20693;-87
2023/11/13 07:02:02;;;;;;;8.13;3.50;;;8.20;99.90;;;;;;5071915;28;20232;-87
2023/11/13 07:04:27;;;;;;;8.17;3.90;;;8.20;99.90;;;;;;5072336;28;20604;-86
2023/11/13 07:06:53;;;;;;;8.27;3.47;;;8.20;99.90;;;;;;5072731;28;20260;-86
2023/11/13 07:09:19;;;;;;;8.20;3.93;;;8.30;99.90;;;;;;5072073;28;20211;-86
2023/11/13 07:11:47;;;;;;;7.23;3.07;;;8.30;99.90;;;;;;5072634;28;20611;-85
2023/11/13 07:14:15;;;;;;;10.27;3.40;;;8.40;99.90;;;;;;5072448;28;20181;-86
2023/11/13 07:16:41;;;;;;;13.57;3.90;;;8.50;99.90;;;;;;5072368;28;20184;-85
2023/11/13 07:19:08;;;;;;;8.57;3.42;;;8.40;99.90;;;;;;5073713;28;20184;-83
2023/11/13 07:21:38;;;;;;;4.38;2.55;;;8.50;99.90;;;;;;5052319;28;20182;-83
2023/11/13 07:24:04;;;;;;;15.43;3.80;;;8.60;99.90;;;;;;5070180;28;20268;-86
2023/11/13 07:26:30;;;;;;;5.30;3.47;;;8.70;99.90;;;;;;5057419;28;20181;-86
2023/11/13 07:28:56;;;;;;;9.68;2.90;;;8.70;99.90;;;;;;5055724;28;20202;-86
2023/11/13 07:31:22;;;;;;;10.20;2.87;;;8.70;99.90;;;;;;5057100;28;20658;-86
2023/11/13 07:33:48;;;;;;;9.83;2.90;;;8.70;99.90;;;;;;5039373;28;20447;-86
2023/11/13 07:36:14;;;;;;;4.32;3.03;;;8.70;99.90;;;;;;5038620;28;20450;-86
2023/11/13 07:38:42;;;;;;;10.23;3.10;;;8.80;99.90;;;;;;5064013;28;20637;-86
2023/11/13 07:41:11;;;;;;;12.45;2.90;;;8.90;99.90;;;;;;5075652;28;20185;-86
2023/11/13 07:43:44;;;;;;;6.07;3.10;;;8.80;99.90;;;;;;5077044;28;20165;-87
2023/11/13 07:46:14;;;;;;;9.48;3.30;;;8.90;99.90;;;;;;5041632;28;20280;-86
2023/11/13 07:48:40;;;;;;;11.43;2.80;;;8.90;99.90;;;;;;5056282;28;20217;-86
2023/11/13 07:51:07;;;;;;;7.20;2.90;;;8.90;99.90;;;;;;5059432;28;20288;-85
2023/11/13 07:53:35;;;;;;;13.07;3.45;;;9.00;99.90;;;;;;5050831;28;20208;-86
2023/11/13 07:56:01;;;;;;;9.93;3.25;;;9.00;99.90;;;;;;5065035;28;20203;-85
2023/11/13 07:58:27;;;;;;;9.67;3.33;;;9.00;99.90;;;;;;5049612;28;20185;-86
2023/11/13 08:00:53;;;;;;;6.67;3.10;;;9.00;99.90;;;;;;5055332;28;20495;-86
2023/11/13 08:03:20;;;;;;;11.52;4.05;;;9.00;99.90;;;;;;5055065;28;20328;-86
2023/11/13 08:05:45;;;;;;;19.27;3.92;;;9.10;99.90;;;;;;5056747;28;20257;-86
2023/11/13 08:08:13;;;;;;;9.43;2.97;;;9.10;99.90;;;;;;5056185;28;20293;-86
2023/11/13 08:10:40;;;;;;;12.15;3.60;;;9.20;99.90;;;;;;5056210;28;20181;-85
2023/11/13 08:13:06;;;;;;;10.95;4.03;;;9.10;99.90;;;;;;5075350;28;20176;-86
2023/11/13 08:15:32;;;;;;;10.83;3.47;;;9.20;99.90;;;;;;5076247;28;20227;-86
2023/11/13 08:17:58;;;;;;;5.53;2.80;;;9.20;99.90;;;;;;5076520;28;20517;-85
2023/11/13 08:20:28;;;;;;;8.88;3.50;;;9.20;99.90;;;;;;5076502;28;20204;-85
2023/11/13 08:22:57;;;;;;;18.15;4.22;;;9.30;99.90;;;;;;5076348;28;20177;-86
2023/11/13 08:25:26;;;;;;;12.60;3.80;;;9.20;99.90;;;;;;5075120;28;20248;-85
2023/11/13 08:27:52;;;;;;;12.40;3.75;;;9.20;99.90;;;;;;5076193;28;20213;-86
2023/11/13 08:30:22;;;;;;;11.52;3.92;;;9.20;99.90;;;;;;5075914;28;20247;-85
2023/11/13 08:32:51;;;;;;;8.43;3.85;;;9.30;99.90;;;;;;5058695;28;20189;-86
2023/11/13 08:35:18;;;;;;;13.73;3.92;;;9.30;99.90;;;;;;5075256;28;20171;-84
2023/11/13 08:37:47;;;;;;;8.90;3.25;;;9.30;99.90;;;;;;5074620;28;20648;-85
2023/11/13 08:40:19;;;;;;;10.88;3.88;;;9.30;99.90;;;;;;5067668;28;20204;-85
2023/11/13 08:42:46;;;;;;;7.18;3.45;;;9.30;99.90;;;;;;5075960;28;20179;-85
2023/11/13 08:45:12;;;;;;;9.90;3.70;;;9.30;99.90;;;;;;5075577;28;20184;-85
2023/11/13 08:47:49;;;;;;;7.82;3.55;;;9.30;99.90;;;;;;5074469;28;20291;-85
2023/11/13 08:50:15;;;;;;;10.57;3.55;;;9.40;99.90;;;;;;5075886;28;20226;-85
2023/11/13 08:52:44;;;;;;;5.05;3.25;;;9.40;99.90;;;;;;5080203;28;20180;-87
2023/11/13 08:55:10;;;;;;;8.93;3.00;;;9.40;99.90;;;;;;5094732;28;20632;-88
2023/11/13 08:57:41;;;;;;;11.52;3.05;;;9.40;99.90;;;;;;5094434;28;20183;-88
2023/11/13 09:00:18;;;;;;;4.78;2.95;;;9.40;99.90;;;;;;5094350;28;20520;-88
2023/11/13 09:02:50;;;;;;;9.95;2.85;;;9.40;99.90;;;;;;5077761;28;20247;-88
2023/11/13 09:05:16;;;;;;;3.63;2.22;;;9.40;99.90;;;;;;5075175;28;20161;-87
2023/11/13 09:07:42;;;;;;;5.20;2.35;;;9.40;99.90;;;;;;5075277;28;20208;-87
2023/11/13 09:10:11;;;;;;;5.63;2.90;;;9.50;99.90;;;;;;5056988;28;20185;-88
2023/11/13 09:12:39;;;;;;;4.55;2.50;;;9.50;99.90;;;;;;5057618;28;20625;-88
2023/11/13 09:15:14;;;;;;;5.88;2.45;;;9.50;99.90;;;;;;5074953;28;20171;-87
2023/11/13 09:17:45;;;;;;;5.82;1.95;;;9.50;99.90;;;;;;5075349;28;20195;-88
2023/11/13 09:20:15;;;;;;;2.55;1.92;;;9.60;99.90;;;;;;5073826;28;20534;-87
2023/11/13 09:22:43;;;;;;;5.78;2.50;;;9.60;99.90;;;;;;5090549;28;20181;-87
2023/11/13 09:25:13;;;;;;;4.55;2.10;;;9.70;99.90;;;;;;5090431;28;20176;-87
2023/11/13 09:28:07;;;;;;;5.35;2.00;;;9.70;99.90;;;;;;5073879;28;20215;-87
2023/11/13 09:30:33;;;;;;;2.88;2.00;;;9.70;99.90;;;;;;5071612;28;20216;-87
2023/11/13 09:33:01;;;;;;;5.53;2.23;;;9.70;99.90;;;;;;5073605;28;20185;-87
2023/11/13 09:35:29;;;;;;;2.80;2.00;;;9.70;99.90;;;;;;5056995;28;20180;-87
2023/11/13 09:37:55;;;;;;;3.15;1.63;;;9.70;99.90;;;;;;5037289;28;20197;-87
2023/11/13 09:40:25;;;;;;;3.67;1.98;;;9.70;99.90;;;;;;5065171;28;20181;-87
2023/11/13 09:42:58;;;;;;;6.13;2.22;;;9.70;99.90;;;;;;5075779;28;20176;-88
2023/11/13 09:45:23;;;;;;;4.72;1.90;;;9.70;99.90;;;;;;5074788;28;20260;-89
2023/11/13 09:47:59;;;;;;;2.67;2.10;;;9.80;99.90;;;;;;5073891;28;20243;-89
2023/11/13 09:50:25;;;;;;;5.45;2.55;;;9.80;99.90;;;;;;5074708;28;20323;-89
2023/11/13 09:52:56;;;;;;;4.40;2.50;;;9.80;99.90;;;;;;5074785;28;20184;-90
2023/11/13 09:55:24;;;;;;;4.55;2.42;;;9.90;99.90;;;;;;5074778;28;20415;-90
2023/11/13 09:57:53;;;;;;;4.70;1.83;;;10.00;99.90;;;;;;5058608;28;20213;-91
2023/11/13 10:00:23;;;;;;;7.75;3.00;;;10.00;99.90;;;;;;5074665;28;20269;-90
2023/11/13 10:02:51;;;;;;;5.55;2.00;;;10.00;99.90;;;;;;5074669;28;20331;-91
2023/11/13 10:05:17;;;;;;;5.55;2.33;;;10.10;99.90;;;;;;5074531;28;20216;-91
2023/11/13 10:07:47;;;;;;;3.03;1.88;;;10.10;99.90;;;;;;5091694;28;20212;-91
2023/11/13 10:10:19;;;;;;;4.32;2.10;;;10.20;99.90;;;;;;5074414;28;20189;-91
2023/11/13 10:12:45;;;;;;;4.05;2.60;;;10.20;99.90;;;;;;5076297;28;20157;-93
2023/11/13 10:15:14;;;;;;;3.63;1.80;;;10.30;99.90;;;;;;5072013;28;20185;-92
2023/11/13 10:17:44;;;;;;;2.55;1.92;;;10.40;99.90;;;;;;5041971;28;20185;-91
2023/11/13 10:20:17;;;;;;;5.28;2.20;;;10.40;99.90;;;;;;5060978;28;20192;-91
2023/11/13 10:22:44;;;;;;;3.22;2.10;;;10.40;99.90;;;;;;5055811;28;20185;-91
2023/11/13 10:25:11;;;;;;;5.65;2.17;;;10.50;99.90;;;;;;5057709;28;20178;-91
2023/11/13 10:27:46;;;;;;;2.90;2.00;;;10.50;99.90;;;;;;5076880;28;20346;-93
2023/11/13 10:30:12;;;;;;;6.97;2.50;;;10.50;99.90;;;;;;5077542;28;20177;-93
2023/11/13 10:32:38;;;;;;;5.93;1.98;;;10.50;99.90;;;;;;5079693;28;20177;-93
2023/11/13 10:35:09;;;;;;;3.95;2.13;;;10.60;99.90;;;;;;5076612;28;20180;-93
2023/11/13 10:37:36;;;;;;;6.97;2.55;;;10.60;99.90;;;;;;5078137;28;20156;-93
2023/11/13 10:40:06;;;;;;;3.92;2.47;;;10.70;99.90;;;;;;5077714;28;20212;-94
2023/11/13 10:42:32;;;;;;;2.60;1.98;;;10.70;99.90;;;;;;5077332;28;20200;-93
2023/11/13 10:44:59;;;;;;;4.30;2.00;;;10.80;99.90;;;;;;5078416;28;20187;-93
2023/11/13 10:47:35;;;;;;;4.75;2.22;;;10.80;99.90;;;;;;5077983;28;20304;-93
2023/11/13 10:50:08;;;;;;;5.70;1.65;;;10.80;99.90;;;;;;5079694;28;20619;-94
2023/11/13 10:52:35;;;;;;;4.75;1.63;;;10.90;99.90;;;;;;5078398;28;20176;-94
2023/11/13 10:55:03;;;;;;;2.75;1.67;;;11.00;99.90;;;;;;5081390;28;20169;-94
2023/11/13 10:57:28;;;;;;;4.03;1.42;;;11.10;99.90;;;;;;5078636;28;20522;-94
2023/11/13 10:59:55;;;;;;;3.50;2.13;;;11.10;99.90;;;;;;5080316;28;20180;-94
2023/11/13 11:02:32;;;;;;;4.38;2.50;;;11.10;99.90;;;;;;5078610;28;20677;-93
2023/11/13 11:05:09;;;;;;;3.45;1.90;;;11.20;99.90;;;;;;5079469;28;20173;-93
2023/11/13 11:07:36;;;;;;;5.28;2.10;;;11.20;99.90;;;;;;5078888;28;20216;-92
2023/11/13 11:10:05;;;;;;;5.03;1.70;;;11.20;99.90;;;;;;5079711;28;20177;-92
2023/11/13 11:12:53;;;;;;;2.80;1.83;;;11.30;99.90;;;;;;5079091;28;20180;-93
2023/11/13 11:15:22;;;;;;;3.67;2.10;;;11.40;99.90;;;;;;5077900;28;20296;-92
2023/11/13 11:18:21;;;;;;;5.53;1.92;;;11.40;99.90;;;;;;5079108;28;20193;-92
2023/11/13 11:20:59;;;;;;;5.13;2.72;;;11.40;99.90;;;;;;5052545;28;20193;-92
2023/11/13 11:23:31;;;;;;;3.72;1.83;;;11.50;99.90;;;;;;5078602;28;20194;-92
2023/11/13 11:26:00;;;;;;;7.05;2.38;;;11.40;99.90;;;;;;5078719;28;20170;-91
2023/11/13 11:28:47;;;;;;;3.78;2.03;;;11.50;99.90;;;;;;5078292;28;20195;-91
2023/11/13 11:31:47;;;;;;;3.65;1.75;;;11.40;99.90;;;;;;5077304;28;20188;-90
2023/11/13 11:34:18;;;;;;;2.17;1.45;;;11.40;99.90;;;;;;5044891;28;20193;-90
2023/11/13 11:36:45;;;;;;;2.70;1.50;;;11.50;99.90;;;;;;5078480;28;20161;-91
2023/11/13 11:39:25;;;;;;;2.60;1.57;;;11.60;99.90;;;;;;5093702;28;20536;-91
2023/11/13 11:41:52;;;;;;;3.25;1.67;;;11.60;99.90;;;;;;5078189;28;20407;-91
2023/11/13 11:44:28;;;;;;;7.60;2.30;;;11.70;99.90;;;;;;5076597;28;20586;-91
2023/11/13 11:46:55;;;;;;;4.05;1.55;;;11.80;99.90;;;;;;5093220;28;20180;-91
2023/11/13 11:49:28;;;;;;;7.18;2.03;;;11.90;99.90;;;;;;5077172;28;20271;-90
2023/11/13 11:52:01;;;;;;;4.38;2.33;;;11.90;99.90;;;;;;5077722;28;20222;-90
2023/11/13 11:54:26;;;;;;;6.03;2.20;;;11.90;99.90;;;;;;5076663;28;20195;-91
2023/11/13 11:57:04;;;;;;;4.90;1.50;;;11.90;99.90;;;;;;5077599;28;20177;-90
2023/11/13 11:59:31;;;;;;;4.40;2.40;;;11.90;99.90;;;;;;5076494;28;20173;-90
2023/11/13 12:01:57;;;;;;;2.80;1.80;;;11.90;99.90;;;;;;5077313;28;20492;-90
2023/11/13 12:04:23;;;;;;;1.80;1.63;;;12.00;99.90;;;;;;5075925;28;20246;-90
2023/11/13 12:06:50;;;;;;;4.43;2.00;;;12.00;99.90;;;;;;5093020;28;20195;-91
2023/11/13 12:09:20;;;;;;;5.90;2.08;;;12.00;99.90;;;;;;5075346;28;20192;-90
2023/11/13 12:11:50;;;;;;;3.83;1.70;;;12.00;99.90;;;;;;5082927;28;20157;-91
2023/11/13 12:14:19;;;;;;;4.65;1.85;;;12.00;99.90;;;;;;5078261;28;20177;-90
2023/11/13 12:16:46;;;;;;;5.28;2.40;;;12.10;99.90;;;;;;5077421;28;20181;-90
2023/11/13 12:19:12;;;;;;;2.63;1.60;;;12.10;99.90;;;;;;5077166;28;20169;-88
2023/11/13 12:21:41;;;;;;;2.77;1.63;;;12.10;99.90;;;;;;5075219;28;20185;-88
2023/11/13 12:24:12;;;;;;;5.10;2.20;;;12.10;99.90;;;;;;5075478;28;20431;-89
2023/11/13 12:26:44;;;;;;;7.03;1.92;;;12.10;99.90;;;;;;5074659;28;20427;-89
2023/11/13 12:29:21;;;;;;;6.43;2.53;;;12.10;99.90;;;;;;5076168;28;20283;-88
2023/11/13 12:31:52;;;;;;;5.50;2.25;;;12.10;99.90;;;;;;5076201;28;20161;-88
2023/11/13 12:34:19;;;;;;;2.78;2.42;;;12.10;99.90;;;;;;5075207;28;20177;-88
2023/11/13 12:36:46;;;;;;;3.65;2.20;;;12.20;99.90;;;;;;5076504;28;20256;-88
2023/11/13 12:39:17;;;;;;;5.40;2.20;;;12.30;99.90;;;;;;5076240;28;20172;-88
2023/11/13 12:41:43;;;;;;;5.70;2.45;;;12.30;99.90;;;;;;5074259;28;20264;-88
2023/11/13 12:44:12;;;;;;;4.40;2.35;;;12.30;99.90;;;;;;5074691;28;20188;-88
2023/11/13 12:46:47;;;;;;;3.40;2.00;;;12.30;99.90;;;;;;5075912;28;20778;-88
2023/11/13 12:49:14;;;;;;;3.23;2.90;;;12.30;99.90;;;;;;5074808;28;20234;-87
2023/11/13 12:51:40;;;;;;;3.97;2.40;;;12.40;99.90;;;;;;5076369;28;20509;-89
2023/11/13 12:54:13;;;;;;;4.97;2.97;;;12.40;99.90;;;;;;5091739;28;20450;-89
2023/11/13 12:56:43;;;;;;;3.00;2.27;;;12.40;99.90;;;;;;5076180;28;20168;-89
2023/11/13 12:59:10;;;;;;;5.70;2.40;;;12.50;99.90;;;;;;5075854;28;20786;-89
2023/11/13 13:01:37;;;;;;;3.50;2.70;;;12.60;99.90;;;;;;5074438;28;20477;-89
2023/11/13 13:04:05;;;;;;;7.67;2.90;;;12.70;99.90;;;;;;5074225;28;20516;-89
2023/11/13 13:06:36;;;;;;;2.97;2.70;;;12.70;99.90;;;;;;5062104;28;20798;-89
2023/11/13 13:09:05;;;;;;;4.63;2.33;;;12.80;99.90;;;;;;5093595;28;20458;-89
2023/11/13 13:11:34;;;;;;;4.47;2.20;;;12.90;99.90;;;;;;5077897;28;20507;-89
2023/11/13 13:14:01;;;;;;;4.87;2.60;;;12.90;99.90;;;;;;5095683;28;20894;-90
2023/11/13 13:16:29;;;;;;;2.40;1.57;;;13.00;99.90;;;;;;5094553;28;20425;-89